Time;durP1;ratioP1;P1;durP2;ratioP2;P2;SDS_P1;SDS_P2;PMS_P1;PMS_P2;Temp;Humidity;BMP_temperature;BMP_pressure;BME280_temperature;BME280_humidity;BME280_pressure;Samples;Min_cycle;Max_cycle;Signal;HPM_P1;HPM_P2
2022/05/18 00:01:14;;;;;;;3.38;1.70;;;;;;;;;;5036791;28;20402;-84
2022/05/18 00:03:42;;;;;;;3.83;1.83;;;;;;;;;;5052134;28;20017;-86
2022/05/18 00:06:08;;;;;;;3.97;1.80;;;;;;;;;;5051768;28;20037;-85
2022/05/18 00:08:37;;;;;;;3.33;1.80;;;;;;;;;;5034120;28;20043;-85
2022/05/18 00:11:06;;;;;;;4.32;1.80;;;;;;;;;;5051312;28;20043;-85
2022/05/18 00:13:32;;;;;;;2.90;1.70;;;;;;;;;;5033968;28;20115;-85
2022/05/18 00:15:58;;;;;;;4.35;1.48;;;;;;;;;;5033675;28;20066;-85
2022/05/18 00:18:24;;;;;;;4.10;1.88;;;;;;;;;;5036363;28;20079;-86
2022/05/18 00:20:50;;;;;;;6.05;2.17;;;;;;;;;;5033790;28;20470;-86
2022/05/18 00:23:16;;;;;;;2.55;1.58;;;;;;;;;;5051482;28;20021;-84
2022/05/18 00:25:42;;;;;;;2.03;1.63;;;;;;;;;;5033136;28;20029;-84
2022/05/18 00:28:09;;;;;;;3.42;1.63;;;;;;;;;;5052035;28;20028;-85
2022/05/18 00:30:38;;;;;;;3.97;1.67;;;;;;;;;;5034002;28;20112;-85
2022/05/18 00:33:05;;;;;;;1.92;1.70;;;;;;;;;;5033509;28;20106;-84
2022/05/18 00:35:31;;;;;;;2.72;1.58;;;;;;;;;;5035183;28;20028;-85
2022/05/18 00:37:57;;;;;;;4.75;2.15;;;;;;;;;;5033684;28;20158;-86
2022/05/18 00:40:24;;;;;;;3.58;1.77;;;;;;;;;;5033439;28;20053;-85
2022/05/18 00:42:50;;;;;;;3.83;1.67;;;;;;;;;;5051773;28;20502;-86
2022/05/18 00:45:16;;;;;;;5.38;1.80;;;;;;;;;;5051319;28;20025;-85
2022/05/18 00:47:42;;;;;;;3.58;1.58;;;;;;;;;;5051800;28;20554;-85
2022/05/18 00:50:10;;;;;;;4.38;2.13;;;;;;;;;;5033323;28;20067;-86
2022/05/18 00:52:41;;;;;;;6.57;1.80;;;;;;;;;;5052004;28;20083;-84
2022/05/18 00:55:08;;;;;;;5.03;2.20;;;;;;;;;;5051614;28;20033;-84
2022/05/18 00:57:47;;;;;;;4.22;1.90;;;;;;;;;;5053679;28;20642;-86
2022/05/18 01:00:15;;;;;;;3.97;2.33;;;;;;;;;;5052975;28;20017;-87
2022/05/18 01:02:45;;;;;;;6.88;2.33;;;;;;;;;;5054515;28;20033;-85
2022/05/18 01:05:12;;;;;;;3.65;2.33;;;;;;;;;;5052646;28;20009;-85
2022/05/18 01:07:40;;;;;;;5.22;2.10;;;;;;;;;;5055813;28;20060;-86
2022/05/18 01:10:07;;;;;;;4.78;2.22;;;;;;;;;;5055157;28;20028;-86
2022/05/18 01:12:33;;;;;;;8.00;2.08;;;;;;;;;;5034586;28;20055;-86
2022/05/18 01:15:09;;;;;;;5.72;1.80;;;;;;;;;;5054934;28;20017;-87
2022/05/18 01:17:36;;;;;;;8.63;2.50;;;;;;;;;;5047140;28;20021;-85
2022/05/18 01:20:05;;;;;;;3.30;2.05;;;;;;;;;;5059696;28;20017;-85
2022/05/18 01:22:46;;;;;;;3.33;2.17;;;;;;;;;;5055372;28;20020;-85
2022/05/18 01:25:18;;;;;;;3.85;2.10;;;;;;;;;;5036134;28;20075;-85
2022/05/18 01:27:44;;;;;;;3.78;1.80;;;;;;;;;;5036982;28;20041;-85
2022/05/18 01:30:10;;;;;;;3.13;1.63;;;;;;;;;;5054696;28;20067;-85
2022/05/18 01:32:41;;;;;;;4.82;2.05;;;;;;;;;;5055073;28;20033;-86
2022/05/18 01:35:08;;;;;;;7.23;2.30;;;;;;;;;;5037283;28;20075;-86
2022/05/18 01:37:34;;;;;;;10.55;2.08;;;;;;;;;;5036764;28;20036;-85
2022/05/18 01:40:01;;;;;;;5.13;2.40;;;;;;;;;;5054480;28;20051;-85
2022/05/18 01:42:30;;;;;;;4.50;2.15;;;;;;;;;;5036451;28;20025;-87
2022/05/18 01:44:56;;;;;;;4.30;2.08;;;;;;;;;;5036569;28;20107;-85
2022/05/18 01:47:22;;;;;;;2.83;1.98;;;;;;;;;;5054366;28;20067;-85
2022/05/18 01:49:49;;;;;;;5.88;2.28;;;;;;;;;;5054195;28;20041;-85
2022/05/18 01:52:15;;;;;;;4.93;2.22;;;;;;;;;;5054206;28;20028;-85
2022/05/18 01:54:43;;;;;;;5.80;2.28;;;;;;;;;;5054305;28;20441;-85
2022/05/18 01:57:09;;;;;;;6.13;2.22;;;;;;;;;;5036837;28;20037;-85
2022/05/18 01:59:36;;;;;;;5.47;2.00;;;;;;;;;;5055301;28;20356;-85
2022/05/18 02:02:03;;;;;;;4.82;2.03;;;;;;;;;;5055039;28;20393;-85
2022/05/18 02:04:32;;;;;;;2.35;1.80;;;;;;;;;;5054297;28;20513;-85
2022/05/18 02:06:58;;;;;;;5.45;2.25;;;;;;;;;;5054468;28;20025;-85
2022/05/18 02:09:24;;;;;;;5.20;2.45;;;;;;;;;;5054148;28;20025;-85
2022/05/18 02:11:51;;;;;;;5.65;2.00;;;;;;;;;;5054778;28;20021;-84
2022/05/18 02:14:17;;;;;;;3.72;2.20;;;;;;;;;;5036553;28;20029;-86
2022/05/18 02:16:43;;;;;;;4.57;2.63;;;;;;;;;;5036408;28;20375;-85
2022/05/18 02:19:09;;;;;;;6.20;2.50;;;;;;;;;;5038732;28;20032;-84
2022/05/18 02:21:35;;;;;;;3.05;2.10;;;;;;;;;;5054918;28;20025;-85
2022/05/18 02:24:01;;;;;;;5.78;2.08;;;;;;;;;;5055529;28;20025;-85
2022/05/18 02:26:27;;;;;;;5.93;2.55;;;;;;;;;;5054384;28;20103;-85
2022/05/18 02:28:53;;;;;;;5.15;2.75;;;;;;;;;;5035461;28;20049;-85
2022/05/18 02:31:19;;;;;;;5.03;2.30;;;;;;;;;;5053231;28;20025;-84
2022/05/18 02:33:45;;;;;;;4.28;2.22;;;;;;;;;;5053746;28;20035;-86
2022/05/18 02:36:12;;;;;;;2.92;2.33;;;;;;;;;;5035894;28;20387;-85
2022/05/18 02:38:38;;;;;;;3.30;2.05;;;;;;;;;;5036271;28;20059;-85
2022/05/18 02:41:05;;;;;;;5.72;2.17;;;;;;;;;;5054254;28;20098;-85
2022/05/18 02:43:31;;;;;;;4.25;2.00;;;;;;;;;;5054639;28;20072;-84
2022/05/18 02:46:01;;;;;;;5.32;2.47;;;;;;;;;;5054461;28;20430;-84
2022/05/18 02:48:26;;;;;;;4.95;2.65;;;;;;;;;;5054313;28;20035;-84
2022/05/18 02:50:52;;;;;;;5.00;2.60;;;;;;;;;;5054411;28;20025;-83
2022/05/18 02:53:18;;;;;;;5.03;2.08;;;;;;;;;;5054337;28;20017;-85
2022/05/18 02:58:30;;;;;;;6.03;2.35;;;;;;;;;;5053330;28;20594;-86
2022/05/18 03:00:56;;;;;;;2.85;2.15;;;;;;;;;;5053280;28;20017;-85
2022/05/18 03:03:22;;;;;;;12.70;2.67;;;;;;;;;;5035026;28;20366;-86
2022/05/18 03:05:48;;;;;;;2.67;2.40;;;;;;;;;;5034754;28;20394;-86
2022/05/18 03:08:14;;;;;;;4.47;2.20;;;;;;;;;;5052145;28;20036;-85
2022/05/18 03:10:41;;;;;;;9.05;2.65;;;;;;;;;;5053240;28;20040;-84
2022/05/18 03:13:07;;;;;;;5.50;2.38;;;;;;;;;;5053589;28;20029;-87
2022/05/18 03:15:33;;;;;;;4.45;2.50;;;;;;;;;;5030563;28;20471;-84
2022/05/18 03:18:00;;;;;;;3.35;2.35;;;;;;;;;;5056073;28;20113;-86
2022/05/18 03:25:56;;;;;;;5.95;2.60;;;;;;;;;;5055881;28;20521;-85
2022/05/18 03:28:22;;;;;;;5.03;2.58;;;;;;;;;;5064565;28;20021;-85
2022/05/18 03:30:48;;;;;;;4.93;2.40;;;;;;;;;;5055709;28;20021;-85
2022/05/18 03:33:14;;;;;;;9.25;2.72;;;;;;;;;;5051365;28;20017;-86
2022/05/18 03:35:40;;;;;;;3.70;2.15;;;;;;;;;;5035802;28;20024;-86
2022/05/18 03:38:06;;;;;;;3.78;2.30;;;;;;;;;;5052872;28;20029;-86
2022/05/18 03:40:35;;;;;;;3.72;2.88;;;;;;;;;;5053479;28;20021;-85
2022/05/18 03:43:01;;;;;;;5.95;2.80;;;;;;;;;;5035143;28;20025;-85
2022/05/18 03:45:27;;;;;;;4.95;3.00;;;;;;;;;;5035202;28;20032;-84
2022/05/18 03:47:53;;;;;;;4.93;2.80;;;;;;;;;;5053330;28;20025;-85
2022/05/18 03:50:19;;;;;;;3.92;2.50;;;;;;;;;;5035407;28;20505;-85
2022/05/18 03:52:51;;;;;;;7.70;2.53;;;;;;;;;;5035144;28;20470;-86
2022/05/18 03:55:17;;;;;;;4.05;2.65;;;;;;;;;;5052878;28;20032;-87
2022/05/18 03:57:49;;;;;;;7.18;2.95;;;;;;;;;;5034644;28;20021;-85
2022/05/18 04:00:39;;;;;;;5.60;3.03;;;;;;;;;;5042915;28;20021;-84
2022/05/18 04:03:09;;;;;;;5.45;3.03;;;;;;;;;;5053784;28;20021;-86
2022/05/18 04:05:37;;;;;;;7.45;2.88;;;;;;;;;;5035951;28;20044;-86
2022/05/18 04:08:04;;;;;;;3.58;2.50;;;;;;;;;;5035400;28;20021;-84
2022/05/18 04:11:04;;;;;;;4.90;2.78;;;;;;;;;;5053107;28;20029;-85
2022/05/18 04:13:55;;;;;;;5.00;2.47;;;;;;;;;;5009978;28;20063;-85
2022/05/18 04:16:58;;;;;;;;;;;;;;;;;;;;;
2022/05/18 04:19:39;;;;;;;8.10;2.92;;;;;;;;;;5047517;28;20035;-84
2022/05/18 04:22:12;;;;;;;2.97;2.17;;;;;;;;;;5051103;28;20043;-85
2022/05/18 04:24:38;;;;;;;6.00;2.58;;;;;;;;;;5067017;28;20368;-86
2022/05/18 04:27:08;;;;;;;6.60;3.05;;;;;;;;;;5085180;28;20035;-85
2022/05/18 04:29:40;;;;;;;4.82;2.13;;;;;;;;;;5072769;28;20482;-86
2022/05/18 04:32:18;;;;;;;7.57;3.53;;;;;;;;;;5069612;28;20049;-87
2022/05/18 04:34:48;;;;;;;3.30;2.50;;;;;;;;;;5053312;28;20437;-86
2022/05/18 04:37:14;;;;;;;6.93;3.03;;;;;;;;;;5071270;28;20031;-86
2022/05/18 04:39:40;;;;;;;3.75;2.97;;;;;;;;;;5074908;28;20032;-85
2022/05/18 04:42:06;;;;;;;5.70;2.63;;;;;;;;;;5092000;28;20032;-86
2022/05/18 04:44:32;;;;;;;5.03;3.10;;;;;;;;;;5091777;28;20044;-87
2022/05/18 04:46:58;;;;;;;6.22;2.97;;;;;;;;;;5090464;28;20501;-87
2022/05/18 04:49:24;;;;;;;4.85;2.90;;;;;;;;;;5091627;28;20032;-87
2022/05/18 04:51:50;;;;;;;7.53;2.83;;;;;;;;;;5090050;28;20478;-87
2022/05/18 04:54:39;;;;;;;3.28;2.58;;;;;;;;;;5091833;28;20028;-88
2022/05/18 04:57:20;;;;;;;5.35;3.25;;;;;;;;;;5077965;28;20520;-88
2022/05/18 04:59:52;;;;;;;3.58;3.10;;;;;;;;;;5091275;28;20402;-87
2022/05/18 05:02:39;;;;;;;4.35;2.70;;;;;;;;;;5090155;28;20024;-87
2022/05/18 05:05:27;;;;;;;6.40;2.95;;;;;;;;;;5089084;28;20024;-87
2022/05/18 05:08:03;;;;;;;4.60;2.58;;;;;;;;;;5085310;28;20028;-86
2022/05/18 05:10:29;;;;;;;5.97;2.25;;;;;;;;;;5069839;28;20036;-86
2022/05/18 05:13:25;;;;;;;4.25;2.42;;;;;;;;;;5070666;28;20029;-86
2022/05/18 05:15:54;;;;;;;3.20;2.08;;;;;;;;;;5063951;28;20044;-87
2022/05/18 05:18:21;;;;;;;4.00;2.45;;;;;;;;;;5071029;28;20043;-86
2022/05/18 05:20:47;;;;;;;6.32;2.80;;;;;;;;;;5070907;28;20557;-85
2022/05/18 05:23:13;;;;;;;7.65;2.55;;;;;;;;;;5069998;28;20055;-86
2022/05/18 05:25:39;;;;;;;5.32;2.83;;;;;;;;;;5071513;28;20459;-86
2022/05/18 05:38:25;;;;;;;7.80;2.40;;;;;;;;;;4987572;28;20138;-88
2022/05/18 05:41:03;;;;;;;7.25;2.13;;;;;;;;;;4991915;28;20039;-88
2022/05/18 05:43:51;;;;;;;3.17;2.47;;;;;;;;;;4993950;28;20026;-89
2022/05/18 05:49:21;;;;;;;7.10;2.75;;;;;;;;;;4994145;28;20114;-86
2022/05/18 05:51:59;;;;;;;5.05;2.60;;;;;;;;;;4999381;28;20120;-88
2022/05/18 05:54:33;;;;;;;7.07;2.50;;;;;;;;;;4996613;28;20023;-89
2022/05/18 05:57:22;;;;;;;5.70;2.63;;;;;;;;;;4994927;28;20041;-88
2022/05/18 05:59:54;;;;;;;5.45;2.28;;;;;;;;;;4989299;28;20084;-89
2022/05/18 06:02:20;;;;;;;2.85;2.40;;;;;;;;;;4994708;28;20098;-90
2022/05/18 06:04:58;;;;;;;5.13;1.92;;;;;;;;;;4995654;28;20040;-90
2022/05/18 06:10:27;;;;;;;3.88;2.25;;;;;;;;;;4996041;28;20420;-90
2022/05/18 06:13:37;;;;;;;6.00;2.25;;;;;;;;;;4995489;28;20038;-90
2022/05/18 06:16:11;;;;;;;4.22;2.15;;;;;;;;;;4995581;28;20034;-90
2022/05/18 06:18:49;;;;;;;9.77;2.78;;;;;;;;;;4996068;28;20026;-89
2022/05/18 06:21:18;;;;;;;12.30;2.58;;;;;;;;;;4999011;28;20504;-89
2022/05/18 06:24:03;;;;;;;6.35;2.10;;;;;;;;;;4994553;28;20034;-89
2022/05/18 06:26:36;;;;;;;6.13;2.28;;;;;;;;;;4994873;28;20029;-89
2022/05/18 06:29:23;;;;;;;3.47;2.10;;;;;;;;;;4995744;28;20046;-89
2022/05/18 06:31:52;;;;;;;4.60;2.15;;;;;;;;;;5004249;28;20061;-89
2022/05/18 06:34:41;;;;;;;9.90;2.20;;;;;;;;;;4994558;28;20412;-89
2022/05/18 06:37:31;;;;;;;3.55;1.92;;;;;;;;;;4985581;28;20038;-87
2022/05/18 06:40:05;;;;;;;4.40;2.13;;;;;;;;;;4995611;28;20042;-90
2022/05/18 06:42:45;;;;;;;5.78;2.30;;;;;;;;;;5003932;28;20611;-90
2022/05/18 06:48:04;;;;;;;3.65;2.08;;;;;;;;;;4989331;28;20030;-90
2022/05/18 06:50:39;;;;;;;3.28;2.00;;;;;;;;;;4994346;28;20297;-89
2022/05/18 06:53:05;;;;;;;5.90;1.90;;;;;;;;;;5005809;28;20032;-90
2022/05/18 06:55:34;;;;;;;4.63;2.17;;;;;;;;;;4994709;28;20536;-87
2022/05/18 06:58:00;;;;;;;4.70;2.70;;;;;;;;;;4993697;28;20030;-90
2022/05/18 07:00:27;;;;;;;3.70;2.10;;;;;;;;;;4995347;28;20477;-89
2022/05/18 07:02:53;;;;;;;3.28;2.00;;;;;;;;;;4993687;28;20031;-91
2022/05/18 07:05:19;;;;;;;4.10;1.95;;;;;;;;;;4992955;28;20034;-91
2022/05/18 07:07:45;;;;;;;4.53;2.17;;;;;;;;;;4994458;28;20018;-89
2022/05/18 07:10:13;;;;;;;2.83;2.20;;;;;;;;;;4993531;28;20033;-90
2022/05/18 07:12:39;;;;;;;8.65;2.53;;;;;;;;;;4994245;28;20032;-90
2022/05/18 07:15:06;;;;;;;4.20;2.25;;;;;;;;;;4993504;28;20516;-90
2022/05/18 07:17:32;;;;;;;6.82;2.35;;;;;;;;;;4994641;28;20439;-89
2022/05/18 07:19:58;;;;;;;5.55;2.47;;;;;;;;;;4993583;28;20072;-89
2022/05/18 07:22:24;;;;;;;3.15;2.20;;;;;;;;;;4994196;28;20081;-90
2022/05/18 07:24:54;;;;;;;4.28;2.30;;;;;;;;;;4994524;28;20023;-89
2022/05/18 07:27:23;;;;;;;3.45;2.10;;;;;;;;;;4993596;28;20027;-90
2022/05/18 07:29:49;;;;;;;2.47;1.98;;;;;;;;;;4994019;28;20050;-90
2022/05/18 07:32:23;;;;;;;3.22;2.15;;;;;;;;;;4994106;28;20031;-90
2022/05/18 07:34:55;;;;;;;4.35;2.30;;;;;;;;;;4994977;28;20034;-91
2022/05/18 07:37:41;;;;;;;6.82;2.10;;;;;;;;;;4993679;28;20034;-90
2022/05/18 07:40:15;;;;;;;3.80;1.85;;;;;;;;;;4993810;28;20034;-90
2022/05/18 07:42:41;;;;;;;2.65;1.70;;;;;;;;;;4994054;28;20022;-89
2022/05/18 07:45:07;;;;;;;3.20;1.80;;;;;;;;;;4994897;28;20027;-90
2022/05/18 07:47:36;;;;;;;4.18;1.88;;;;;;;;;;4992696;28;20030;-90
2022/05/18 07:50:02;;;;;;;4.85;1.90;;;;;;;;;;4994088;28;20396;-87
2022/05/18 07:52:29;;;;;;;4.72;2.00;;;;;;;;;;4993980;28;20034;-91
2022/05/18 07:54:55;;;;;;;4.97;1.85;;;;;;;;;;4992391;28;20027;-89
2022/05/18 07:57:21;;;;;;;3.42;1.95;;;;;;;;;;4992862;28;20113;-89
2022/05/18 07:59:47;;;;;;;3.10;1.70;;;;;;;;;;4994391;28;20061;-88
2022/05/18 08:02:13;;;;;;;5.90;1.80;;;;;;;;;;4994085;28;20050;-89
2022/05/18 08:04:39;;;;;;;4.85;2.30;;;;;;;;;;4994684;28;20022;-88
2022/05/18 08:07:05;;;;;;;2.20;1.80;;;;;;;;;;4992629;28;20508;-89
2022/05/18 08:15:05;;;;;;;3.17;2.08;;;;;;;;;;4992527;28;20096;-89
2022/05/18 08:15:08;;;;;;;3.40;2.03;;;;;;;;;;4994046;28;20188;-90
2022/05/18 08:17:34;;;;;;;4.50;1.70;;;;;;;;;;4992101;28;20022;-89
2022/05/18 08:20:03;;;;;;;5.75;2.10;;;;;;;;;;4992772;28;20093;-89
2022/05/18 08:22:30;;;;;;;7.05;1.98;;;;;;;;;;4991508;28;20497;-89
2022/05/18 08:24:56;;;;;;;3.15;1.50;;;;;;;;;;4993670;28;20037;-90
2022/05/18 08:27:22;;;;;;;7.38;2.10;;;;;;;;;;4992274;28;20026;-89
2022/05/18 08:29:48;;;;;;;3.20;2.00;;;;;;;;;;4993425;28;20344;-89
2022/05/18 08:32:14;;;;;;;4.65;2.00;;;;;;;;;;4992605;28;20113;-89
2022/05/18 08:34:40;;;;;;;2.90;2.00;;;;;;;;;;4992705;28;20539;-90
2022/05/18 08:37:06;;;;;;;3.88;2.10;;;;;;;;;;4992335;28;20034;-89
2022/05/18 08:39:32;;;;;;;8.27;2.60;;;;;;;;;;4991704;28;20038;-88
2022/05/18 08:42:00;;;;;;;3.05;2.10;;;;;;;;;;4993527;28;20026;-89
2022/05/18 08:44:28;;;;;;;4.70;2.17;;;;;;;;;;4991921;28;20038;-90
2022/05/18 08:47:13;;;;;;;4.15;1.80;;;;;;;;;;4992017;28;20022;-90
2022/05/18 08:49:39;;;;;;;5.35;2.00;;;;;;;;;;4992492;28;20399;-88
2022/05/18 08:52:27;;;;;;;4.28;2.22;;;;;;;;;;5005314;28;20058;-89
2022/05/18 08:54:53;;;;;;;5.65;2.40;;;;;;;;;;4992197;28;20404;-89
2022/05/18 08:57:21;;;;;;;3.90;2.47;;;;;;;;;;4993491;28;20030;-88
2022/05/18 08:59:50;;;;;;;4.45;2.30;;;;;;;;;;4992046;28;20049;-87
2022/05/18 09:02:17;;;;;;;3.58;2.05;;;;;;;;;;4992198;28;20022;-89
2022/05/18 09:04:52;;;;;;;5.32;2.47;;;;;;;;;;4993851;28;20486;-88
2022/05/18 09:07:20;;;;;;;3.53;2.42;;;;;;;;;;4992588;28;20034;-89
2022/05/18 09:10:16;;;;;;;6.28;2.15;;;;;;;;;;4993637;28;20069;-89
2022/05/18 09:12:50;;;;;;;2.90;2.00;;;;;;;;;;4993592;28;20499;-89
2022/05/18 09:15:17;;;;;;;2.63;1.77;;;;;;;;;;4993608;28;20502;-88
2022/05/18 09:17:43;;;;;;;3.55;2.15;;;;;;;;;;4991797;28;20100;-88
2022/05/18 09:20:19;;;;;;;7.35;2.33;;;;;;;;;;4996436;28;20096;-91
2022/05/18 09:22:57;;;;;;;3.83;2.30;;;;;;;;;;4995442;28;20023;-88
2022/05/18 09:25:41;;;;;;;3.63;2.00;;;;;;;;;;4996398;28;20026;-88
2022/05/18 09:28:26;;;;;;;4.53;1.90;;;;;;;;;;4996972;28;20030;-89
2022/05/18 09:31:03;;;;;;;4.03;2.22;;;;;;;;;;4996924;28;20031;-87
2022/05/18 09:33:48;;;;;;;4.72;2.20;;;;;;;;;;4997269;28;20030;-88
2022/05/18 09:36:20;;;;;;;5.07;2.05;;;;;;;;;;4996300;28;20030;-88
2022/05/18 09:39:01;;;;;;;3.03;2.13;;;;;;;;;;4997073;28;20022;-89
2022/05/18 09:41:29;;;;;;;2.03;1.77;;;;;;;;;;4993553;28;20031;-89
2022/05/18 09:44:00;;;;;;;4.15;2.20;;;;;;;;;;4995905;28;20054;-86
2022/05/18 09:46:28;;;;;;;3.67;1.67;;;;;;;;;;4995755;28;20508;-87
2022/05/18 09:49:11;;;;;;;3.45;1.77;;;;;;;;;;4996846;28;20042;-88
2022/05/18 09:51:37;;;;;;;5.63;2.15;;;;;;;;;;4995115;28;20455;-88
2022/05/18 09:54:03;;;;;;;3.78;1.83;;;;;;;;;;4995383;28;20035;-90
2022/05/18 09:56:36;;;;;;;2.83;1.80;;;;;;;;;;4995153;28;20026;-89
2022/05/18 09:59:06;;;;;;;1.95;1.60;;;;;;;;;;4994190;28;20022;-88
2022/05/18 10:07:27;;;;;;;4.78;2.00;;;;;;;;;;4995958;28;20033;-87
2022/05/18 10:09:59;;;;;;;6.85;2.22;;;;;;;;;;4976232;28;20416;-89
2022/05/18 10:12:31;;;;;;;4.05;2.10;;;;;;;;;;5004310;28;20057;-89
2022/05/18 10:15:04;;;;;;;4.07;1.85;;;;;;;;;;4975939;28;20026;-88
2022/05/18 10:17:36;;;;;;;2.10;1.67;;;;;;;;;;4975580;28;20094;-87
2022/05/18 10:20:06;;;;;;;3.22;1.95;;;;;;;;;;4976872;28;20054;-88
2022/05/18 10:22:35;;;;;;;4.17;1.90;;;;;;;;;;4977044;28;20027;-88
2022/05/18 10:25:09;;;;;;;2.55;1.77;;;;;;;;;;4990306;28;20054;-89
2022/05/18 10:27:36;;;;;;;4.75;2.15;;;;;;;;;;4994938;28;20407;-88
2022/05/18 10:30:05;;;;;;;5.50;2.03;;;;;;;;;;4995622;28;20093;-87
2022/05/18 10:32:31;;;;;;;2.28;1.83;;;;;;;;;;4995345;28;20088;-88
2022/05/18 10:34:58;;;;;;;9.75;1.95;;;;;;;;;;4996887;28;20037;-87
2022/05/18 10:37:28;;;;;;;4.45;1.90;;;;;;;;;;5008554;28;20041;-88
2022/05/18 10:39:59;;;;;;;7.13;2.00;;;;;;;;;;5015415;28;20018;-89
2022/05/18 10:42:27;;;;;;;3.17;1.75;;;;;;;;;;5013306;28;20038;-90
2022/05/18 10:44:54;;;;;;;2.47;1.70;;;;;;;;;;5007827;28;20026;-87
2022/05/18 10:47:30;;;;;;;4.82;1.80;;;;;;;;;;4995530;28;20022;-89
2022/05/18 10:50:14;;;;;;;2.50;1.88;;;;;;;;;;4990985;28;20026;-89
2022/05/18 10:52:40;;;;;;;5.97;1.55;;;;;;;;;;5005781;28;20052;-88
2022/05/18 10:55:17;;;;;;;3.60;2.00;;;;;;;;;;4995055;28;20034;-87
2022/05/18 10:57:57;;;;;;;3.38;1.90;;;;;;;;;;4995109;28;20030;-87
2022/05/18 11:00:32;;;;;;;5.43;1.65;;;;;;;;;;4995764;28;20097;-87
2022/05/18 11:03:20;;;;;;;4.10;1.60;;;;;;;;;;4995429;28;20041;-88
2022/05/18 11:05:51;;;;;;;4.63;1.50;;;;;;;;;;4995635;28;20038;-88
2022/05/18 11:08:17;;;;;;;;;;;;;;;;;;4995660;28;20030;-89
2022/05/18 11:10:43;;;;;;;4.13;1.70;;;;;;;;;;4993442;28;19910;-89
2022/05/18 11:13:15;;;;;;;2.92;1.95;;;;;;;;;;4995544;28;20471;-89
2022/05/18 11:15:41;;;;;;;3.83;1.67;;;;;;;;;;4994389;28;20030;-88
2022/05/18 11:18:16;;;;;;;2.85;1.58;;;;;;;;;;4992498;28;20127;-89
2022/05/18 11:20:51;;;;;;;2.75;1.80;;;;;;;;;;4995701;28;20078;-89
2022/05/18 11:23:17;;;;;;;5.50;1.60;;;;;;;;;;4989321;28;20015;-90
2022/05/18 11:25:47;;;;;;;3.65;1.95;;;;;;;;;;4975936;28;20480;-88
2022/05/18 11:28:31;;;;;;;4.32;1.80;;;;;;;;;;4994005;28;20054;-86
2022/05/18 11:30:57;;;;;;;3.47;1.38;;;;;;;;;;4994744;28;20121;-87
2022/05/18 11:33:32;;;;;;;4.10;1.52;;;;;;;;;;4993385;28;20515;-87
2022/05/18 11:36:17;;;;;;;3.10;1.83;;;;;;;;;;4993606;28;20651;-88
2022/05/18 11:38:52;;;;;;;5.95;2.22;;;;;;;;;;4993941;28;20030;-87
2022/05/18 11:41:24;;;;;;;3.67;1.92;;;;;;;;;;4992226;28;20488;-87
2022/05/18 11:44:11;;;;;;;4.57;1.70;;;;;;;;;;5000035;28;20041;-86
2022/05/18 11:46:57;;;;;;;5.38;1.58;;;;;;;;;;5018777;28;20034;-88
2022/05/18 11:49:34;;;;;;;4.47;1.95;;;;;;;;;;5018238;28;20018;-87
2022/05/18 11:52:06;;;;;;;1.83;1.40;;;;;;;;;;5018546;28;20126;-89
2022/05/18 11:54:35;;;;;;;3.25;1.75;;;;;;;;;;5018032;28;20010;-87
2022/05/18 11:57:22;;;;;;;2.97;1.73;;;;;;;;;;5018584;28;20022;-88
2022/05/18 12:00:09;;;;;;;2.83;2.00;;;;;;;;;;5018134;28;20037;-87
2022/05/18 12:02:55;;;;;;;4.70;1.48;;;;;;;;;;5017275;28;20022;-88
2022/05/18 12:05:21;;;;;;;4.05;1.98;;;;;;;;;;5018108;28;20049;-88
2022/05/18 12:08:09;;;;;;;2.03;1.67;;;;;;;;;;5017778;28;20034;-88
2022/05/18 12:10:39;;;;;;;3.13;1.52;;;;;;;;;;5017667;28;20026;-88
2022/05/18 12:13:30;;;;;;;4.30;1.60;;;;;;;;;;5018578;28;20011;-89
2022/05/18 12:16:03;;;;;;;4.78;1.63;;;;;;;;;;5018470;28;20077;-88
2022/05/18 12:18:35;;;;;;;8.00;1.67;;;;;;;;;;5017239;28;20049;-88
2022/05/18 12:21:13;;;;;;;2.75;1.30;;;;;;;;;;5018407;28;20016;-87
2022/05/18 12:23:44;;;;;;;3.97;1.45;;;;;;;;;;5017820;28;20018;-89
2022/05/18 12:26:11;;;;;;;4.05;1.92;;;;;;;;;;5017888;28;20019;-89
2022/05/18 12:28:37;;;;;;;3.13;1.58;;;;;;;;;;5018105;28;20015;-86
2022/05/18 12:31:04;;;;;;;2.25;1.30;;;;;;;;;;5017988;28;20029;-88
2022/05/18 12:33:33;;;;;;;2.17;1.48;;;;;;;;;;5018215;28;20038;-88
2022/05/18 12:36:04;;;;;;;4.95;2.13;;;;;;;;;;5017542;28;20007;-87
2022/05/18 12:38:30;;;;;;;;;;;;;;;;;;5018147;28;20053;-86
2022/05/18 12:41:00;;;;;;;2.53;1.50;;;;;;;;;;5017651;28;19921;-88
2022/05/18 12:43:26;;;;;;;6.32;1.42;;;;;;;;;;5017455;28;20057;-87
2022/05/18 12:46:21;;;;;;;2.20;1.40;;;;;;;;;;5017535;28;20038;-88
2022/05/18 12:48:47;;;;;;;3.85;1.42;;;;;;;;;;5017424;28;20015;-88
2022/05/18 12:51:31;;;;;;;2.67;1.58;;;;;;;;;;5017425;28;20034;-88
2022/05/18 12:54:21;;;;;;;4.32;1.77;;;;;;;;;;5020362;28;20014;-88
2022/05/18 12:56:49;;;;;;;3.23;1.60;;;;;;;;;;5022055;28;20030;-88
2022/05/18 12:59:20;;;;;;;2.33;1.40;;;;;;;;;;5022023;28;20010;-88
2022/05/18 13:02:06;;;;;;;2.97;1.45;;;;;;;;;;5021296;28;20028;-87
2022/05/18 13:04:40;;;;;;;3.03;2.08;;;;;;;;;;5021945;28;20019;-88
2022/05/18 13:07:25;;;;;;;3.35;1.67;;;;;;;;;;5021019;28;20086;-87
2022/05/18 13:10:00;;;;;;;2.47;1.45;;;;;;;;;;5021882;28;20022;-87
2022/05/18 13:12:26;;;;;;;15.13;1.52;;;;;;;;;;5021599;28;20026;-88
2022/05/18 13:14:58;;;;;;;4.53;1.63;;;;;;;;;;5021235;28;20018;-88
2022/05/18 13:17:43;;;;;;;5.00;1.15;;;;;;;;;;5021489;28;20057;-87
2022/05/18 13:20:41;;;;;;;4.65;1.60;;;;;;;;;;5021670;28;20103;-89
2022/05/18 13:23:23;;;;;;;3.00;1.95;;;;;;;;;;5020345;28;20050;-88
2022/05/18 13:25:55;;;;;;;3.10;1.70;;;;;;;;;;5021499;28;20018;-86
2022/05/18 13:28:22;;;;;;;1.52;1.30;;;;;;;;;;5021420;28;20026;-88
2022/05/18 13:30:56;;;;;;;3.75;1.38;;;;;;;;;;5016924;28;20715;-87
2022/05/18 13:33:24;;;;;;;3.20;1.15;;;;;;;;;;5003804;28;20030;-88
2022/05/18 13:35:50;;;;;;;5.97;1.50;;;;;;;;;;4999048;28;20030;-86
2022/05/18 13:38:19;;;;;;;3.03;1.58;;;;;;;;;;4996694;28;20038;-85
2022/05/18 13:40:47;;;;;;;1.98;0.95;;;;;;;;;;4996632;28;20112;-86
2022/05/18 13:43:14;;;;;;;1.70;1.30;;;;;;;;;;4996502;28;20065;-86
2022/05/18 13:45:44;;;;;;;3.17;1.45;;;;;;;;;;4995349;28;20030;-85
2022/05/18 13:48:11;;;;;;;5.00;1.55;;;;;;;;;;4996274;28;20030;-87
2022/05/18 13:50:40;;;;;;;5.22;1.60;;;;;;;;;;4994874;28;20050;-86
2022/05/18 13:53:12;;;;;;;4.88;1.27;;;;;;;;;;4996335;28;20101;-87
2022/05/18 13:55:40;;;;;;;2.35;1.40;;;;;;;;;;4994970;28;20027;-87
2022/05/18 13:58:09;;;;;;;9.50;1.52;;;;;;;;;;4995512;28;20044;-88
2022/05/18 14:00:42;;;;;;;4.60;1.63;;;;;;;;;;4995727;28;20019;-88
2022/05/18 14:03:12;;;;;;;2.92;1.67;;;;;;;;;;4995896;28;20037;-89
2022/05/18 14:05:40;;;;;;;4.85;1.77;;;;;;;;;;4994037;28;20022;-88
2022/05/18 14:08:33;;;;;;;3.58;1.50;;;;;;;;;;4995382;28;20034;-87
2022/05/18 14:11:03;;;;;;;3.92;1.40;;;;;;;;;;4994834;28;20038;-87
2022/05/18 14:13:30;;;;;;;2.42;1.50;;;;;;;;;;4995509;28;20065;-87
2022/05/18 14:15:57;;;;;;;1.85;1.30;;;;;;;;;;4994598;28;20034;-87
2022/05/18 14:18:35;;;;;;;1.70;1.25;;;;;;;;;;4994695;28;20028;-87
2022/05/18 14:21:09;;;;;;;2.65;1.55;;;;;;;;;;4996501;28;20026;-88
2022/05/18 14:23:53;;;;;;;1.63;1.23;;;;;;;;;;4996284;28;20022;-88
2022/05/18 14:26:22;;;;;;;1.58;1.25;;;;;;;;;;4995042;28;20029;-89
2022/05/18 14:28:51;;;;;;;2.08;1.20;;;;;;;;;;4996015;28;20066;-89
2022/05/18 14:31:19;;;;;;;2.92;1.83;;;;;;;;;;4994288;28;20553;-89
2022/05/18 14:33:45;;;;;;;5.13;1.90;;;;;;;;;;4995731;28;20058;-89
2022/05/18 14:36:30;;;;;;;3.88;1.50;;;;;;;;;;4994748;28;20073;-89
2022/05/18 14:38:58;;;;;;;4.10;1.40;;;;;;;;;;4996202;28;20092;-88
2022/05/18 14:41:25;;;;;;;5.25;1.63;;;;;;;;;;4995669;28;20066;-88
2022/05/18 14:43:56;;;;;;;2.85;1.80;;;;;;;;;;4994193;28;20076;-90
2022/05/18 14:46:29;;;;;;;5.00;1.98;;;;;;;;;;4995041;28;20026;-90
2022/05/18 14:49:15;;;;;;;2.72;1.70;;;;;;;;;;4993010;28;20045;-89
2022/05/18 14:51:46;;;;;;;3.00;2.05;;;;;;;;;;4992225;28;20026;-89
2022/05/18 14:54:12;;;;;;;;;;;;;;;;;;4994417;28;20018;-89
2022/05/18 14:56:41;;;;;;;4.60;1.90;;;;;;;;;;4994772;28;19917;-88
2022/05/18 14:59:09;;;;;;;5.53;2.38;;;;;;;;;;4995359;28;20022;-89
2022/05/18 15:01:41;;;;;;;2.80;1.73;;;;;;;;;;5005234;28;20046;-89
2022/05/18 15:04:10;;;;;;;3.28;1.70;;;;;;;;;;4995841;28;20034;-89
2022/05/18 15:06:37;;;;;;;4.82;2.00;;;;;;;;;;4993928;28;20034;-89
2022/05/18 15:09:04;;;;;;;3.90;2.33;;;;;;;;;;4993780;28;20029;-89
2022/05/18 15:11:34;;;;;;;2.78;1.73;;;;;;;;;;4992371;28;20027;-89
2022/05/18 15:14:16;;;;;;;6.03;1.92;;;;;;;;;;4992400;28;20504;-89
2022/05/18 15:16:44;;;;;;;3.60;1.60;;;;;;;;;;4991852;28;20500;-88
2022/05/18 15:19:40;;;;;;;2.92;1.52;;;;;;;;;;4993644;28;20117;-88
2022/05/18 15:22:09;;;;;;;2.03;1.73;;;;;;;;;;4990664;28;20062;-89
2022/05/18 15:24:36;;;;;;;2.40;1.60;;;;;;;;;;4995291;28;20098;-88
2022/05/18 15:27:03;;;;;;;7.13;2.35;;;;;;;;;;4995239;28;20049;-88
2022/05/18 15:29:32;;;;;;;5.78;1.98;;;;;;;;;;4995066;28;20034;-88
2022/05/18 15:32:10;;;;;;;3.75;1.75;;;;;;;;;;4994248;28;20113;-87
2022/05/18 15:34:39;;;;;;;5.35;1.90;;;;;;;;;;4995025;28;20038;-87
2022/05/18 15:37:05;;;;;;;4.03;1.75;;;;;;;;;;4995164;28;20326;-88
2022/05/18 15:39:31;;;;;;;3.08;1.67;;;;;;;;;;4994533;28;20026;-89
2022/05/18 15:41:58;;;;;;;4.43;2.00;;;;;;;;;;4992941;28;20052;-89
2022/05/18 15:44:26;;;;;;;4.82;1.70;;;;;;;;;;4992696;28;20022;-89
2022/05/18 15:46:53;;;;;;;2.03;1.70;;;;;;;;;;4993801;28;20029;-88